createdAt,value
2023-02-28T00:00:03.619Z,-2.56
2023-02-28T00:02:49.064Z,-2.47
2023-02-28T00:05:29.433Z,-2.45
2023-02-28T00:08:29.786Z,-2.38
2023-02-28T00:11:17.587Z,-2.31
2023-02-28T00:14:03.894Z,-2.20
2023-02-28T00:16:50.460Z,-2.18
2023-02-28T00:19:32.363Z,-1.97
2023-02-28T00:22:13.102Z,-1.94
2023-02-28T00:24:54.434Z,-1.67
2023-02-28T00:27:44.326Z,-1.56
2023-02-28T00:30:29.558Z,-1.52
2023-02-28T00:33:13.025Z,-1.66
2023-02-28T00:36:06.942Z,-1.36
2023-02-28T00:38:47.203Z,-1.48
2023-02-28T00:41:29.587Z,-1.61
2023-02-28T00:44:23.577Z,-1.66
2023-02-28T00:47:07.671Z,-1.66
2023-02-28T00:50:05.740Z,-1.63
2023-02-28T00:52:44.201Z,-1.57
2023-02-28T00:55:30.973Z,-1.59
2023-02-28T00:58:21.579Z,-1.60
2023-02-28T01:01:11.831Z,-1.59
2023-02-28T01:03:52.994Z,-1.59
2023-02-28T01:06:33.380Z,-1.52
2023-02-28T01:09:16.943Z,-1.50
2023-02-28T01:11:57.747Z,-1.47
2023-02-28T01:14:35.705Z,-1.49
2023-02-28T01:17:18.947Z,-1.52
2023-02-28T01:20:11.328Z,-1.47
2023-02-28T01:22:56.679Z,-1.52
2023-02-28T01:25:54.409Z,-1.48
2023-02-28T01:28:51.878Z,-1.54
2023-02-28T01:31:42.012Z,-1.56
2023-02-28T01:34:31.775Z,-1.52
2023-02-28T01:37:10.379Z,-1.51
2023-02-28T01:39:53.662Z,-1.48
2023-02-28T01:42:29.394Z,-1.46
2023-02-28T01:45:18.105Z,-1.53
2023-02-28T01:48:07.895Z,-1.36
2023-02-28T01:50:54.698Z,-1.35
2023-02-28T01:54:02.404Z,-1.37
2023-02-28T01:56:54.193Z,-1.31
2023-02-28T01:59:56.369Z,-1.25
2023-02-28T02:02:40.696Z,-1.26
2023-02-28T02:05:18.821Z,-1.13
2023-02-28T02:08:13.507Z,-1.20
2023-02-28T02:10:55.186Z,-1.20
2023-02-28T02:14:08.805Z,-1.20
2023-02-28T02:17:05.771Z,-1.09
2023-02-28T02:20:02.801Z,-1.08
2023-02-28T02:23:09.867Z,-1.14
2023-02-28T02:26:09.888Z,-1.16
2023-02-28T02:29:21.101Z,-1.31
2023-02-28T02:32:36.066Z,-1.18
2023-02-28T02:35:42.172Z,-1.19
2023-02-28T02:38:44.642Z,-1.15
2023-02-28T02:41:34.970Z,-1.06
2023-02-28T02:44:28.020Z,-0.99
2023-02-28T02:47:32.116Z,-1.03
2023-02-28T02:50:10.723Z,-1.23
2023-02-28T02:52:59.854Z,-1.18
2023-02-28T02:55:49.169Z,-1.19
2023-02-28T02:58:37.449Z,-1.07
2023-02-28T03:01:32.363Z,-1.10
2023-02-28T03:04:20.375Z,-1.03
2023-02-28T03:07:07.440Z,-0.90
2023-02-28T03:10:00.190Z,-0.69
2023-02-28T03:13:04.457Z,-0.66
2023-02-28T03:15:58.420Z,-0.71
2023-02-28T03:19:01.473Z,-0.67
2023-02-28T03:21:44.770Z,-0.76
2023-02-28T03:24:46.034Z,-0.73
2023-02-28T03:28:02.864Z,-0.57
2023-02-28T03:31:04.491Z,-0.60
2023-02-28T03:33:55.774Z,-0.63
2023-02-28T03:36:45.102Z,-0.61
2023-02-28T03:39:41.624Z,-0.75
2023-02-28T03:42:29.840Z,-0.66
2023-02-28T03:45:28.326Z,-0.62
2023-02-28T03:48:27.706Z,-0.57
2023-02-28T03:51:17.532Z,-0.61
2023-02-28T03:54:04.357Z,-0.74
2023-02-28T03:57:06.001Z,-0.92
2023-02-28T04:00:05.395Z,-0.90
2023-02-28T04:02:59.181Z,-0.63
2023-02-28T04:05:59.426Z,-0.63
2023-02-28T04:08:44.436Z,-0.71
2023-02-28T04:12:00.146Z,-0.77
2023-02-28T04:14:37.837Z,-0.81
2023-02-28T04:17:24.699Z,-0.81
2023-02-28T04:19:59.665Z,-0.88
2023-02-28T04:22:32.204Z,-0.71
2023-02-28T04:25:28.190Z,-0.50
2023-02-28T04:28:16.739Z,-0.52
2023-02-28T04:31:00.970Z,-0.51
2023-02-28T04:33:37.554Z,-0.44
2023-02-28T04:39:27.557Z,-0.51
2023-02-28T04:42:28.353Z,-0.53
2023-02-28T04:45:20.281Z,-0.54
2023-02-28T04:48:04.074Z,-0.49
2023-02-28T04:51:00.794Z,-0.55
2023-02-28T04:53:45.327Z,-0.52
2023-02-28T04:56:33.041Z,-0.52
2023-02-28T04:59:19.288Z,-0.46
2023-02-28T05:02:08.449Z,-0.49
2023-02-28T05:04:49.209Z,-0.55
2023-02-28T05:07:36.130Z,-0.56
2023-02-28T05:10:11.435Z,-0.50
2023-02-28T05:13:03.426Z,-0.52
2023-02-28T05:15:49.279Z,-0.60
2023-02-28T05:18:46.898Z,-0.47
2023-02-28T05:22:04.945Z,-0.44
2023-02-28T05:24:53.189Z,-0.40
2023-02-28T05:27:36.410Z,-0.44
2023-02-28T05:30:22.798Z,-0.35
2023-02-28T05:33:16.985Z,-0.23
2023-02-28T05:35:59.439Z,-0.24
2023-02-28T05:38:34.286Z,-0.32
2023-02-28T05:41:22.201Z,-0.23
2023-02-28T05:44:02.437Z,-0.33
2023-02-28T05:46:48.477Z,-0.28
2023-02-28T05:49:35.848Z,-0.25
2023-02-28T05:52:19.051Z,-0.20
2023-02-28T05:55:10.649Z,-0.33
2023-02-28T05:57:56.994Z,-0.37
2023-02-28T06:00:33.670Z,-0.39
2023-02-28T06:03:19.118Z,-0.34
2023-02-28T06:06:03.927Z,-0.12
2023-02-28T06:08:54.690Z,-0.18
2023-02-28T06:11:33.410Z,-0.12
2023-02-28T06:14:24.893Z,-0.14
2023-02-28T06:17:11.062Z,-0.07
2023-02-28T06:20:03.498Z,0.07
2023-02-28T06:23:00.441Z,0.11
2023-02-28T06:25:48.745Z,0.12
2023-02-28T06:28:44.569Z,0.15
2023-02-28T06:31:34.907Z,0.36
2023-02-28T06:34:18.255Z,0.28
2023-02-28T06:37:05.806Z,0.41
2023-02-28T06:39:46.522Z,0.50
2023-02-28T06:42:32.527Z,0.37
2023-02-28T06:45:31.723Z,0.58
2023-02-28T06:48:15.202Z,0.81
2023-02-28T06:50:51.128Z,0.62
2023-02-28T06:53:39.463Z,0.68
2023-02-28T06:56:18.941Z,0.95
2023-02-28T06:59:08.858Z,1.14
2023-02-28T07:01:58.491Z,1.30
2023-02-28T07:04:35.240Z,1.20
2023-02-28T07:07:22.243Z,1.11
2023-02-28T07:10:14.775Z,0.98
2023-02-28T07:13:08.516Z,1.15
2023-02-28T07:16:14.794Z,1.46
2023-02-28T07:19:02.399Z,1.40
2023-02-28T07:21:41.429Z,1.08
2023-02-28T07:24:25.385Z,1.47
2023-02-28T07:27:14.469Z,1.69
2023-02-28T07:30:06.223Z,1.52
2023-02-28T07:33:02.116Z,1.58
2023-02-28T07:35:53.937Z,1.60
2023-02-28T07:38:38.556Z,1.72
2023-02-28T07:41:25.805Z,1.60
2023-02-28T07:44:10.039Z,1.92
2023-02-28T07:46:54.429Z,2.18
2023-02-28T07:49:38.429Z,2.24
2023-02-28T07:52:24.732Z,2.32
2023-02-28T07:55:11.765Z,2.29
2023-02-28T07:57:52.780Z,2.16
2023-02-28T08:00:33.920Z,2.41
2023-02-28T08:03:17.512Z,2.33
2023-02-28T08:05:58.093Z,2.46
2023-02-28T08:08:46.600Z,2.57
2023-02-28T08:11:35.846Z,2.64
2023-02-28T08:14:22.691Z,2.68
2023-02-28T08:17:12.577Z,2.98
2023-02-28T08:19:59.903Z,3.35
2023-02-28T08:22:45.993Z,3.44
2023-02-28T08:25:18.536Z,3.51
2023-02-28T08:28:04.132Z,3.49
2023-02-28T08:30:56.384Z,3.64
2023-02-28T08:33:43.075Z,3.52
2023-02-28T08:36:19.480Z,3.65
2023-02-28T08:39:11.462Z,4.12
2023-02-28T08:42:02.083Z,4.31
2023-02-28T08:44:53.243Z,4.47
2023-02-28T08:47:49.624Z,4.31
2023-02-28T08:50:32.850Z,4.51
2023-02-28T08:53:14.535Z,4.61
2023-02-28T08:56:05.454Z,4.64
2023-02-28T08:58:58.724Z,4.93
2023-02-28T09:01:47.771Z,4.91
2023-02-28T09:04:26.000Z,4.82
2023-02-28T09:07:04.445Z,4.84
2023-02-28T09:09:56.931Z,4.94
2023-02-28T09:12:38.621Z,4.98
2023-02-28T09:15:18.978Z,4.78
2023-02-28T09:17:58.990Z,5.13
2023-02-28T09:20:36.660Z,4.91
2023-02-28T09:23:31.369Z,4.85
2023-02-28T09:26:24.627Z,4.89
2023-02-28T09:29:08.002Z,4.89
2023-02-28T09:32:00.435Z,5.03
2023-02-28T09:34:44.113Z,5.08
2023-02-28T09:37:43.803Z,5.43
2023-02-28T09:40:31.751Z,5.69
2023-02-28T09:43:07.124Z,5.95
2023-02-28T09:46:12.891Z,5.91
2023-02-28T09:48:59.084Z,6.30
2023-02-28T09:52:07.009Z,6.46
2023-02-28T09:54:58.774Z,6.25
2023-02-28T09:57:54.843Z,6.40
2023-02-28T10:00:38.047Z,5.84
2023-02-28T10:03:51.329Z,6.16
2023-02-28T10:06:57.495Z,6.30
2023-02-28T10:09:42.791Z,6.22
2023-02-28T10:12:29.009Z,5.93
2023-02-28T10:15:13.754Z,6.14
2023-02-28T10:18:08.359Z,6.44
2023-02-28T10:20:59.814Z,6.46
2023-02-28T10:23:44.855Z,6.56
2023-02-28T10:26:36.766Z,6.45
2023-02-28T10:29:17.529Z,5.87
2023-02-28T10:32:00.260Z,6.09
2023-02-28T10:34:47.365Z,5.76
2023-02-28T10:37:27.425Z,6.01
2023-02-28T10:40:28.495Z,6.16
2023-02-28T10:43:22.408Z,6.43
2023-02-28T10:46:27.047Z,6.72
2023-02-28T10:49:14.272Z,6.22
2023-02-28T10:54:42.375Z,6.90
2023-02-28T10:57:34.409Z,7.14
2023-02-28T11:00:31.022Z,7.46
2023-02-28T11:03:34.760Z,7.11
2023-02-28T11:06:29.802Z,7.33
2023-02-28T11:09:33.849Z,6.87
2023-02-28T11:12:28.688Z,6.82
2023-02-28T11:15:33.441Z,6.83
2023-02-28T11:18:28.352Z,7.05
2023-02-28T11:21:12.617Z,6.98
2023-02-28T11:24:02.417Z,7.06
2023-02-28T11:27:14.281Z,6.92
2023-02-28T11:29:53.688Z,7.23
2023-02-28T11:32:40.213Z,7.12
2023-02-28T11:35:53.425Z,6.53
2023-02-28T11:38:40.102Z,7.02
2023-02-28T11:41:41.142Z,7.28
2023-02-28T11:44:46.970Z,7.59
2023-02-28T11:48:01.767Z,7.90
2023-02-28T11:51:14.109Z,8.12
2023-02-28T11:54:25.347Z,8.27
2023-02-28T11:57:27.974Z,8.45
2023-02-28T12:00:25.183Z,8.73
2023-02-28T12:03:29.757Z,8.76
2023-02-28T12:06:44.647Z,8.33
2023-02-28T12:09:28.261Z,8.16
2023-02-28T12:12:40.013Z,8.21
2023-02-28T12:15:59.419Z,7.67
2023-02-28T12:18:57.534Z,7.80
2023-02-28T12:21:59.917Z,7.62
2023-02-28T12:25:08.249Z,7.48
2023-02-28T12:27:53.189Z,7.16
2023-02-28T12:31:15.100Z,7.32
2023-02-28T12:33:54.425Z,7.98
2023-02-28T12:36:38.312Z,8.18
2023-02-28T12:39:41.706Z,8.16
2023-02-28T12:42:39.182Z,8.74
2023-02-28T12:45:28.387Z,8.93
2023-02-28T12:48:26.985Z,9.22
2023-02-28T12:51:20.601Z,8.69
2023-02-28T12:54:40.393Z,9.23
2023-02-28T12:57:37.367Z,9.23
2023-02-28T13:00:33.391Z,8.95
2023-02-28T13:03:38.699Z,8.81
2023-02-28T13:06:45.479Z,8.82
2023-02-28T13:09:44.563Z,8.61
2023-02-28T13:12:41.790Z,8.97
2023-02-28T13:15:36.399Z,9.26
2023-02-28T13:18:54.418Z,9.11
2023-02-28T13:21:45.629Z,9.61
2023-02-28T13:24:52.381Z,9.53
2023-02-28T13:27:50.358Z,10.00
2023-02-28T13:31:05.023Z,9.77
2023-02-28T13:34:08.414Z,9.49
2023-02-28T13:36:57.338Z,9.80
2023-02-28T13:40:24.501Z,9.08
2023-02-28T13:43:16.702Z,9.06
2023-02-28T13:46:20.763Z,9.25
2023-02-28T13:49:19.600Z,8.64
2023-02-28T13:52:20.414Z,8.37
2023-02-28T13:55:25.997Z,8.16
2023-02-28T13:58:26.029Z,8.59
2023-02-28T14:01:56.544Z,8.57
2023-02-28T14:05:31.010Z,8.02
2023-02-28T14:08:30.209Z,7.99
2023-02-28T14:11:35.156Z,7.92
2023-02-28T14:14:33.620Z,7.97
2023-02-28T14:17:20.890Z,7.62
2023-02-28T14:20:01.552Z,7.98
2023-02-28T14:22:40.589Z,8.07
2023-02-28T14:25:38.031Z,7.93
2023-02-28T14:28:28.992Z,7.93
2023-02-28T14:31:30.551Z,7.52
2023-02-28T14:34:50.476Z,7.08
2023-02-28T14:37:28.543Z,7.42
2023-02-28T14:40:10.887Z,7.41
2023-02-28T14:43:04.258Z,7.60
2023-02-28T14:45:59.598Z,7.46
2023-02-28T14:48:45.397Z,7.43
2023-02-28T14:51:33.258Z,7.50
2023-02-28T14:54:27.553Z,7.49
2023-02-28T14:57:18.239Z,7.50
2023-02-28T15:00:08.430Z,7.42
2023-02-28T15:02:50.287Z,7.25
2023-02-28T15:05:40.849Z,7.23
2023-02-28T15:08:22.615Z,7.04
2023-02-28T15:11:22.828Z,6.86
2023-02-28T15:14:33.239Z,6.81
2023-02-28T15:17:41.343Z,6.71
2023-02-28T15:20:23.620Z,6.61
2023-02-28T15:23:06.189Z,6.36
2023-02-28T15:25:54.438Z,6.52
2023-02-28T15:28:35.029Z,6.45
2023-02-28T15:31:39.038Z,6.43
2023-02-28T15:34:51.132Z,6.34
2023-02-28T15:37:55.442Z,6.32
2023-02-28T15:41:03.454Z,6.15
2023-02-28T15:43:49.397Z,6.16
2023-02-28T15:46:34.731Z,5.99
2023-02-28T15:49:25.081Z,6.04
2023-02-28T15:52:15.516Z,6.06
2023-02-28T15:55:13.692Z,6.00
2023-02-28T15:57:59.782Z,5.87
2023-02-28T16:00:50.586Z,5.99
2023-02-28T16:03:52.002Z,5.86
2023-02-28T16:06:52.372Z,5.77
2023-02-28T16:09:36.996Z,5.67
2023-02-28T16:12:28.223Z,5.73
2023-02-28T16:15:27.150Z,5.48
2023-02-28T16:18:09.406Z,5.57
2023-02-28T16:21:01.592Z,5.44
2023-02-28T16:23:47.405Z,5.41
2023-02-28T16:26:31.355Z,5.40
2023-02-28T16:29:22.321Z,5.43
2023-02-28T16:32:30.718Z,5.27
2023-02-28T16:35:25.227Z,5.18
2023-02-28T16:38:03.382Z,5.22
2023-02-28T16:40:44.908Z,5.35
2023-02-28T16:43:40.191Z,5.32
2023-02-28T16:46:16.319Z,5.27
2023-02-28T16:49:05.875Z,5.25
2023-02-28T16:51:44.134Z,5.08
2023-02-28T16:54:29.513Z,5.07
2023-02-28T16:57:17.509Z,4.94
2023-02-28T17:00:09.061Z,4.87
2023-02-28T17:03:08.262Z,4.87
2023-02-28T17:05:56.072Z,4.95
2023-02-28T17:08:40.044Z,4.98
2023-02-28T17:11:34.678Z,4.89
2023-02-28T17:14:13.377Z,4.97
2023-02-28T17:17:00.614Z,4.97
2023-02-28T17:22:46.705Z,4.96
2023-02-28T17:25:34.457Z,4.91
2023-02-28T17:28:17.945Z,4.93
2023-02-28T17:31:17.642Z,4.85
2023-02-28T17:34:03.979Z,4.88
2023-02-28T17:36:50.109Z,4.83
2023-02-28T17:39:37.422Z,4.84
2023-02-28T17:42:29.059Z,4.79
2023-02-28T17:45:13.195Z,4.77
2023-02-28T17:48:10.080Z,4.75
2023-02-28T17:51:08.280Z,4.67
2023-02-28T17:54:08.515Z,4.61
2023-02-28T17:57:02.250Z,4.57
2023-02-28T17:59:48.384Z,4.60
2023-02-28T18:02:43.498Z,4.54
2023-02-28T18:05:31.228Z,4.42
2023-02-28T18:11:21.143Z,4.40
2023-02-28T18:14:03.357Z,4.38
2023-02-28T18:16:54.504Z,4.43
2023-02-28T18:19:46.161Z,4.34
2023-02-28T18:22:33.247Z,4.33
2023-02-28T18:25:26.343Z,4.40
2023-02-28T18:28:15.459Z,4.40
2023-02-28T18:31:14.965Z,4.37
2023-02-28T18:34:14.706Z,4.38
2023-02-28T18:37:02.843Z,4.37
2023-02-28T18:39:53.050Z,4.34
2023-02-28T18:42:39.311Z,4.37
2023-02-28T18:45:29.041Z,4.37
2023-02-28T18:48:10.990Z,4.35
2023-02-28T18:50:47.354Z,4.33
2023-02-28T18:53:32.261Z,4.27
2023-02-28T18:56:16.072Z,4.22
2023-02-28T18:58:51.249Z,4.22
2023-02-28T19:01:46.774Z,4.36
2023-02-28T19:04:33.745Z,4.41
2023-02-28T19:07:20.620Z,4.21
2023-02-28T19:10:03.083Z,4.26
2023-02-28T19:13:06.444Z,4.25
2023-02-28T19:15:57.673Z,4.32
2023-02-28T19:18:46.587Z,4.31
2023-02-28T19:21:35.499Z,4.29
2023-02-28T19:24:26.223Z,4.19
2023-02-28T19:27:10.455Z,4.18
2023-02-28T19:29:59.388Z,4.25
2023-02-28T19:33:05.129Z,4.24
2023-02-28T19:36:00.105Z,4.28
2023-02-28T19:38:54.337Z,4.26
2023-02-28T19:41:32.807Z,4.25
2023-02-28T19:44:29.219Z,4.24
2023-02-28T19:47:24.471Z,4.21
2023-02-28T19:50:05.683Z,4.14
2023-02-28T19:52:53.445Z,4.08
2023-02-28T19:55:40.119Z,4.10
2023-02-28T19:58:23.104Z,4.10
2023-02-28T20:01:16.965Z,4.05
2023-02-28T20:04:12.043Z,4.08
2023-02-28T20:06:59.020Z,3.91
2023-02-28T20:09:50.892Z,4.01
2023-02-28T20:12:42.853Z,4.07
2023-02-28T20:15:27.175Z,4.09
2023-02-28T20:18:23.427Z,4.13
2023-02-28T20:21:10.025Z,4.10
2023-02-28T20:23:56.209Z,4.11
2023-02-28T20:26:45.319Z,4.11
2023-02-28T20:29:34.579Z,4.17
2023-02-28T20:32:39.846Z,4.12
2023-02-28T20:35:17.178Z,4.07
2023-02-28T20:38:09.364Z,4.10
2023-02-28T20:41:10.433Z,3.96
2023-02-28T20:43:58.578Z,3.91
2023-02-28T20:46:46.420Z,3.89
2023-02-28T20:49:44.567Z,3.98
2023-02-28T20:52:27.964Z,4.03
2023-02-28T20:55:18.137Z,4.00
2023-02-28T20:58:11.614Z,3.95
2023-02-28T21:01:07.809Z,4.08
2023-02-28T21:04:03.285Z,3.93
2023-02-28T21:06:57.710Z,3.96
2023-02-28T21:09:45.386Z,3.87
2023-02-28T21:12:19.354Z,3.90
2023-02-28T21:15:10.237Z,3.90
2023-02-28T21:17:50.877Z,3.90
2023-02-28T21:20:36.539Z,3.98
2023-02-28T21:23:29.534Z,3.93
2023-02-28T21:26:07.758Z,3.89
2023-02-28T21:28:49.412Z,3.75
2023-02-28T21:31:44.095Z,3.77
2023-02-28T21:34:34.122Z,3.82
2023-02-28T21:37:12.012Z,3.70
2023-02-28T21:39:56.829Z,3.79
2023-02-28T21:42:44.352Z,3.85
2023-02-28T21:45:25.005Z,3.75
2023-02-28T21:48:04.149Z,3.53
2023-02-28T21:51:00.173Z,3.76
2023-02-28T21:53:44.363Z,3.84
2023-02-28T21:56:37.214Z,3.83
2023-02-28T21:59:19.672Z,3.73
2023-02-28T22:02:03.460Z,3.72
2023-02-28T22:04:50.245Z,3.55
2023-02-28T22:07:40.489Z,3.66
2023-02-28T22:10:31.294Z,3.75
2023-02-28T22:13:24.353Z,3.66
2023-02-28T22:16:19.649Z,3.58
2023-02-28T22:19:07.667Z,3.57
2023-02-28T22:22:06.583Z,3.60
2023-02-28T22:24:57.365Z,3.60
2023-02-28T22:27:44.408Z,3.65
2023-02-28T22:30:34.503Z,3.63
2023-02-28T22:33:21.522Z,3.62
2023-02-28T22:36:11.201Z,3.62
2023-02-28T22:39:02.267Z,3.66
2023-02-28T22:41:41.385Z,3.61
2023-02-28T22:44:40.850Z,3.65
2023-02-28T22:47:28.720Z,3.51
2023-02-28T22:50:19.692Z,3.42
2023-02-28T22:53:06.651Z,3.53
2023-02-28T22:56:00.334Z,3.53
2023-02-28T22:58:58.758Z,3.48
2023-02-28T23:01:45.059Z,3.47
2023-02-28T23:04:36.165Z,3.46
2023-02-28T23:07:21.330Z,3.49
2023-02-28T23:10:16.697Z,3.58
2023-02-28T23:12:57.221Z,3.50
2023-02-28T23:15:42.807Z,3.47
2023-02-28T23:18:25.337Z,3.50
2023-02-28T23:21:21.141Z,3.50
2023-02-28T23:24:06.984Z,3.49
2023-02-28T23:26:55.583Z,3.53
2023-02-28T23:29:55.302Z,3.45
2023-02-28T23:32:48.122Z,3.51
2023-02-28T23:35:36.030Z,3.50
2023-02-28T23:38:19.993Z,3.45
2023-02-28T23:41:19.304Z,3.41
2023-02-28T23:44:07.785Z,3.51
2023-02-28T23:46:58.327Z,3.52
2023-02-28T23:50:02.402Z,3.46
2023-02-28T23:52:35.263Z,3.40
2023-02-28T23:55:18.722Z,3.41
2023-02-28T23:58:12.847Z,3.26
